<?xml version="1.0" encoding="UTF-8" standalone="no" ?>
<gpx xmlns="http://www.topografix.com/GPX/1/1" xmlns:xsi="http://www.w3.org/2001/XMLSchema-instance" xsi:schemaLocation="http://www.topografix.com/GPX/1/1 http://www.topografix.com/GPX/1/1/gpx.xsd" version="1.1" creator="VisuGPX - https://www.visugpx.com">
  <metadata>
    <name>Dondas - Sabré - 21 août 2017</name>
    <desc><![CDATA[Dondas - Sabré - 21 août 2017 ----------]]></desc>
  </metadata>
  <trk>
    <name><![CDATA[2017-08-21T08:14:28Z]]></name>
    <trkseg>
      <trkpt lat="44.21962" lon="0.84548">
        <ele>158.65</ele>
        <time>2017-08-21T08:14:29Z</time>
      </trkpt>
      <trkpt lat="44.21965" lon="0.84555">
        <ele>158.011</ele>
        <time>2017-08-21T08:14:34Z</time>
      </trkpt>
      <trkpt lat="44.21959" lon="0.84551">
        <ele>158.871</ele>
        <time>2017-08-21T08:14:38Z</time>
      </trkpt>
      <trkpt lat="44.21945" lon="0.84553">
        <ele>161.891</ele>
        <time>2017-08-21T08:14:43Z</time>
      </trkpt>
      <trkpt lat="44.21932" lon="0.84564">
        <ele>162.981</ele>
        <time>2017-08-21T08:14:47Z</time>
      </trkpt>
      <trkpt lat="44.21926" lon="0.84571">
        <ele>164.121</ele>
        <time>2017-08-21T08:14:49Z</time>
      </trkpt>
      <trkpt lat="44.21906" lon="0.84593">
        <ele>167.003</ele>
        <time>2017-08-21T08:14:56Z</time>
      </trkpt>
      <trkpt lat="44.21882" lon="0.84629">
        <ele>171.501</ele>
        <time>2017-08-21T08:15:06Z</time>
      </trkpt>
      <trkpt lat="44.21854" lon="0.8467">
        <ele>176.53</ele>
        <time>2017-08-21T08:15:17Z</time>
      </trkpt>
      <trkpt lat="44.21835" lon="0.84693">
        <ele>176.682</ele>
        <time>2017-08-21T08:15:24Z</time>
      </trkpt>
      <trkpt lat="44.2183" lon="0.84697">
        <ele>177.385</ele>
        <time>2017-08-21T08:15:26Z</time>
      </trkpt>
      <trkpt lat="44.21832" lon="0.84712">
        <ele>177.702</ele>
        <time>2017-08-21T08:15:30Z</time>
      </trkpt>
      <trkpt lat="44.21865" lon="0.84778">
        <ele>183.361</ele>
        <time>2017-08-21T08:15:42Z</time>
      </trkpt>
      <trkpt lat="44.21884" lon="0.84824">
        <ele>184.389</ele>
        <time>2017-08-21T08:15:49Z</time>
      </trkpt>
      <trkpt lat="44.21907" lon="0.84873">
        <ele>184.23</ele>
        <time>2017-08-21T08:15:55Z</time>
      </trkpt>
      <trkpt lat="44.21935" lon="0.84913">
        <ele>183.511</ele>
        <time>2017-08-21T08:16:01Z</time>
      </trkpt>
      <trkpt lat="44.21975" lon="0.8496">
        <ele>183.052</ele>
        <time>2017-08-21T08:16:10Z</time>
      </trkpt>
      <trkpt lat="44.22016" lon="0.85017">
        <ele>179.951</ele>
        <time>2017-08-21T08:16:21Z</time>
      </trkpt>
      <trkpt lat="44.22054" lon="0.85065">
        <ele>177.29</ele>
        <time>2017-08-21T08:16:30Z</time>
      </trkpt>
      <trkpt lat="44.22096" lon="0.85099">
        <ele>175.33</ele>
        <time>2017-08-21T08:16:38Z</time>
      </trkpt>
      <trkpt lat="44.22135" lon="0.85136">
        <ele>174.222</ele>
        <time>2017-08-21T08:16:46Z</time>
      </trkpt>
      <trkpt lat="44.22168" lon="0.85181">
        <ele>174.096</ele>
        <time>2017-08-21T08:16:54Z</time>
      </trkpt>
      <trkpt lat="44.222" lon="0.85238">
        <ele>176.594</ele>
        <time>2017-08-21T08:17:04Z</time>
      </trkpt>
      <trkpt lat="44.22223" lon="0.85282">
        <ele>177.624</ele>
        <time>2017-08-21T08:17:13Z</time>
      </trkpt>
      <trkpt lat="44.22244" lon="0.85327">
        <ele>179.344</ele>
        <time>2017-08-21T08:17:23Z</time>
      </trkpt>
      <trkpt lat="44.22261" lon="0.85374">
        <ele>182.834</ele>
        <time>2017-08-21T08:17:33Z</time>
      </trkpt>
      <trkpt lat="44.22274" lon="0.85422">
        <ele>183.211</ele>
        <time>2017-08-21T08:17:42Z</time>
      </trkpt>
      <trkpt lat="44.22284" lon="0.8547">
        <ele>180.932</ele>
        <time>2017-08-21T08:17:48Z</time>
      </trkpt>
      <trkpt lat="44.22301" lon="0.85561">
        <ele>179.264</ele>
        <time>2017-08-21T08:17:58Z</time>
      </trkpt>
      <trkpt lat="44.2231" lon="0.85635">
        <ele>181.404</ele>
        <time>2017-08-21T08:18:07Z</time>
      </trkpt>
      <trkpt lat="44.22321" lon="0.85708">
        <ele>183.034</ele>
        <time>2017-08-21T08:18:17Z</time>
      </trkpt>
      <trkpt lat="44.22336" lon="0.85773">
        <ele>183.364</ele>
        <time>2017-08-21T08:18:26Z</time>
      </trkpt>
      <trkpt lat="44.22353" lon="0.85845">
        <ele>183.613</ele>
        <time>2017-08-21T08:18:36Z</time>
      </trkpt>
      <trkpt lat="44.22374" lon="0.85927">
        <ele>183.635</ele>
        <time>2017-08-21T08:18:47Z</time>
      </trkpt>
      <trkpt lat="44.22395" lon="0.86001">
        <ele>181.912</ele>
        <time>2017-08-21T08:18:57Z</time>
      </trkpt>
      <trkpt lat="44.22408" lon="0.86051">
        <ele>179.812</ele>
        <time>2017-08-21T08:19:02Z</time>
      </trkpt>
      <trkpt lat="44.22429" lon="0.86132">
        <ele>176.083</ele>
        <time>2017-08-21T08:19:09Z</time>
      </trkpt>
      <trkpt lat="44.22439" lon="0.86203">
        <ele>175.805</ele>
        <time>2017-08-21T08:19:15Z</time>
      </trkpt>
      <trkpt lat="44.22447" lon="0.86273">
        <ele>176.635</ele>
        <time>2017-08-21T08:19:22Z</time>
      </trkpt>
      <trkpt lat="44.22457" lon="0.86346">
        <ele>177.343</ele>
        <time>2017-08-21T08:19:30Z</time>
      </trkpt>
      <trkpt lat="44.22455" lon="0.86384">
        <ele>177.404</ele>
        <time>2017-08-21T08:19:34Z</time>
      </trkpt>
      <trkpt lat="44.22436" lon="0.86442">
        <ele>178.745</ele>
        <time>2017-08-21T08:19:42Z</time>
      </trkpt>
      <trkpt lat="44.22435" lon="0.86448">
        <ele>179.035</ele>
        <time>2017-08-21T08:19:43Z</time>
      </trkpt>
      <trkpt lat="44.22435" lon="0.86474">
        <ele>180.527</ele>
        <time>2017-08-21T08:19:47Z</time>
      </trkpt>
      <trkpt lat="44.22468" lon="0.86536">
        <ele>183.777</ele>
        <time>2017-08-21T08:19:58Z</time>
      </trkpt>
      <trkpt lat="44.22505" lon="0.86588">
        <ele>186.586</ele>
        <time>2017-08-21T08:20:09Z</time>
      </trkpt>
      <trkpt lat="44.22538" lon="0.86623">
        <ele>185.586</ele>
        <time>2017-08-21T08:20:17Z</time>
      </trkpt>
      <trkpt lat="44.22575" lon="0.86649">
        <ele>184.456</ele>
        <time>2017-08-21T08:20:24Z</time>
      </trkpt>
      <trkpt lat="44.22635" lon="0.86681">
        <ele>184.046</ele>
        <time>2017-08-21T08:20:35Z</time>
      </trkpt>
      <trkpt lat="44.22669" lon="0.86702">
        <ele>185.117</ele>
        <time>2017-08-21T08:20:42Z</time>
      </trkpt>
      <trkpt lat="44.22712" lon="0.86731">
        <ele>186.808</ele>
        <time>2017-08-21T08:20:52Z</time>
      </trkpt>
      <trkpt lat="44.22737" lon="0.86753">
        <ele>187.973</ele>
        <time>2017-08-21T08:20:58Z</time>
      </trkpt>
      <trkpt lat="44.22762" lon="0.86796">
        <ele>189.928</ele>
        <time>2017-08-21T08:21:06Z</time>
      </trkpt>
      <trkpt lat="44.22783" lon="0.86853">
        <ele>192.278</ele>
        <time>2017-08-21T08:21:15Z</time>
      </trkpt>
      <trkpt lat="44.22797" lon="0.8692">
        <ele>192.748</ele>
        <time>2017-08-21T08:21:25Z</time>
      </trkpt>
      <trkpt lat="44.22805" lon="0.8696">
        <ele>192.368</ele>
        <time>2017-08-21T08:21:31Z</time>
      </trkpt>
      <trkpt lat="44.22808" lon="0.86988">
        <ele>192.478</ele>
        <time>2017-08-21T08:21:35Z</time>
      </trkpt>
      <trkpt lat="44.22811" lon="0.87071">
        <ele>192.68</ele>
        <time>2017-08-21T08:21:47Z</time>
      </trkpt>
      <trkpt lat="44.22815" lon="0.8713">
        <ele>194.299</ele>
        <time>2017-08-21T08:21:55Z</time>
      </trkpt>
      <trkpt lat="44.22825" lon="0.87203">
        <ele>195.559</ele>
        <time>2017-08-21T08:22:05Z</time>
      </trkpt>
      <trkpt lat="44.22841" lon="0.87307">
        <ele>195.879</ele>
        <time>2017-08-21T08:22:18Z</time>
      </trkpt>
      <trkpt lat="44.22856" lon="0.87403">
        <ele>196.569</ele>
        <time>2017-08-21T08:22:30Z</time>
      </trkpt>
      <trkpt lat="44.22874" lon="0.87507">
        <ele>199.869</ele>
        <time>2017-08-21T08:22:43Z</time>
      </trkpt>
      <trkpt lat="44.22885" lon="0.8757">
        <ele>201.88</ele>
        <time>2017-08-21T08:22:51Z</time>
      </trkpt>
      <trkpt lat="44.22888" lon="0.87648">
        <ele>204.13</ele>
        <time>2017-08-21T08:23:01Z</time>
      </trkpt>
      <trkpt lat="44.22887" lon="0.87692">
        <ele>205.27</ele>
        <time>2017-08-21T08:23:07Z</time>
      </trkpt>
      <trkpt lat="44.2289" lon="0.87759">
        <ele>206.95</ele>
        <time>2017-08-21T08:23:16Z</time>
      </trkpt>
      <trkpt lat="44.22896" lon="0.87823">
        <ele>208.741</ele>
        <time>2017-08-21T08:23:24Z</time>
      </trkpt>
      <trkpt lat="44.22895" lon="0.87886">
        <ele>209.71</ele>
        <time>2017-08-21T08:23:32Z</time>
      </trkpt>
      <trkpt lat="44.22892" lon="0.87945">
        <ele>209.98</ele>
        <time>2017-08-21T08:23:39Z</time>
      </trkpt>
      <trkpt lat="44.22889" lon="0.88039">
        <ele>210.071</ele>
        <time>2017-08-21T08:23:50Z</time>
      </trkpt>
      <trkpt lat="44.22885" lon="0.88111">
        <ele>211.992</ele>
        <time>2017-08-21T08:23:59Z</time>
      </trkpt>
      <trkpt lat="44.22878" lon="0.88189">
        <ele>214.792</ele>
        <time>2017-08-21T08:24:09Z</time>
      </trkpt>
      <trkpt lat="44.22871" lon="0.88257">
        <ele>217.802</ele>
        <time>2017-08-21T08:24:18Z</time>
      </trkpt>
      <trkpt lat="44.2287" lon="0.88273">
        <ele>218.462</ele>
        <time>2017-08-21T08:24:20Z</time>
      </trkpt>
      <trkpt lat="44.22876" lon="0.88298">
        <ele>219.012</ele>
        <time>2017-08-21T08:24:24Z</time>
      </trkpt>
      <trkpt lat="44.22894" lon="0.88294">
        <ele>219.522</ele>
        <time>2017-08-21T08:24:27Z</time>
      </trkpt>
      <trkpt lat="44.22938" lon="0.8827">
        <ele>218.93</ele>
        <time>2017-08-21T08:24:34Z</time>
      </trkpt>
      <trkpt lat="44.22977" lon="0.88257">
        <ele>216.328</ele>
        <time>2017-08-21T08:24:39Z</time>
      </trkpt>
      <trkpt lat="44.23048" lon="0.88254">
        <ele>213.109</ele>
        <time>2017-08-21T08:24:47Z</time>
      </trkpt>
      <trkpt lat="44.23118" lon="0.88255">
        <ele>211.802</ele>
        <time>2017-08-21T08:24:55Z</time>
      </trkpt>
      <trkpt lat="44.23181" lon="0.88247">
        <ele>212.273</ele>
        <time>2017-08-21T08:25:03Z</time>
      </trkpt>
      <trkpt lat="44.2326" lon="0.88233">
        <ele>212.472</ele>
        <time>2017-08-21T08:25:14Z</time>
      </trkpt>
      <trkpt lat="44.23294" lon="0.88246">
        <ele>212.322</ele>
        <time>2017-08-21T08:25:19Z</time>
      </trkpt>
      <trkpt lat="44.23316" lon="0.88271">
        <ele>212.292</ele>
        <time>2017-08-21T08:25:23Z</time>
      </trkpt>
      <trkpt lat="44.2332" lon="0.88278">
        <ele>212.282</ele>
        <time>2017-08-21T08:25:24Z</time>
      </trkpt>
      <trkpt lat="44.23354" lon="0.88351">
        <ele>213.673</ele>
        <time>2017-08-21T08:25:33Z</time>
      </trkpt>
      <trkpt lat="44.23387" lon="0.88423">
        <ele>215.653</ele>
        <time>2017-08-21T08:25:42Z</time>
      </trkpt>
      <trkpt lat="44.2342" lon="0.88489">
        <ele>215.224</ele>
        <time>2017-08-21T08:25:50Z</time>
      </trkpt>
      <trkpt lat="44.23442" lon="0.88553">
        <ele>215.825</ele>
        <time>2017-08-21T08:25:57Z</time>
      </trkpt>
      <trkpt lat="44.23461" lon="0.88602">
        <ele>216.975</ele>
        <time>2017-08-21T08:26:03Z</time>
      </trkpt>
      <trkpt lat="44.23478" lon="0.8863">
        <ele>217.845</ele>
        <time>2017-08-21T08:26:07Z</time>
      </trkpt>
      <trkpt lat="44.23515" lon="0.88697">
        <ele>216.492</ele>
        <time>2017-08-21T08:26:16Z</time>
      </trkpt>
      <trkpt lat="44.23551" lon="0.88762">
        <ele>212.88</ele>
        <time>2017-08-21T08:26:23Z</time>
      </trkpt>
      <trkpt lat="44.23591" lon="0.88822">
        <ele>208.71</ele>
        <time>2017-08-21T08:26:29Z</time>
      </trkpt>
      <trkpt lat="44.2365" lon="0.88903">
        <ele>207.135</ele>
        <time>2017-08-21T08:26:37Z</time>
      </trkpt>
      <trkpt lat="44.23678" lon="0.88945">
        <ele>209.416</ele>
        <time>2017-08-21T08:26:42Z</time>
      </trkpt>
      <trkpt lat="44.23704" lon="0.88984">
        <ele>211.185</ele>
        <time>2017-08-21T08:26:48Z</time>
      </trkpt>
      <trkpt lat="44.23733" lon="0.89024">
        <ele>209.615</ele>
        <time>2017-08-21T08:26:54Z</time>
      </trkpt>
      <trkpt lat="44.2379" lon="0.89096">
        <ele>209.187</ele>
        <time>2017-08-21T08:27:04Z</time>
      </trkpt>
      <trkpt lat="44.23836" lon="0.8915">
        <ele>210.327</ele>
        <time>2017-08-21T08:27:13Z</time>
      </trkpt>
      <trkpt lat="44.2387" lon="0.8919">
        <ele>212.268</ele>
        <time>2017-08-21T08:27:21Z</time>
      </trkpt>
      <trkpt lat="44.23903" lon="0.89225">
        <ele>215.309</ele>
        <time>2017-08-21T08:27:30Z</time>
      </trkpt>
      <trkpt lat="44.23928" lon="0.8925">
        <ele>218.179</ele>
        <time>2017-08-21T08:27:38Z</time>
      </trkpt>
      <trkpt lat="44.23963" lon="0.89284">
        <ele>221.688</ele>
        <time>2017-08-21T08:27:50Z</time>
      </trkpt>
      <trkpt lat="44.23989" lon="0.89316">
        <ele>222.718</ele>
        <time>2017-08-21T08:27:59Z</time>
      </trkpt>
      <trkpt lat="44.2401" lon="0.89354">
        <ele>222.248</ele>
        <time>2017-08-21T08:28:06Z</time>
      </trkpt>
      <trkpt lat="44.24037" lon="0.89384">
        <ele>221.417</ele>
        <time>2017-08-21T08:28:12Z</time>
      </trkpt>
      <trkpt lat="44.24079" lon="0.89413">
        <ele>220.538</ele>
        <time>2017-08-21T08:28:19Z</time>
      </trkpt>
      <trkpt lat="44.2412" lon="0.89426">
        <ele>220.529</ele>
        <time>2017-08-21T08:28:25Z</time>
      </trkpt>
      <trkpt lat="44.24169" lon="0.89431">
        <ele>221.199</ele>
        <time>2017-08-21T08:28:32Z</time>
      </trkpt>
      <trkpt lat="44.24207" lon="0.89448">
        <ele>222.24</ele>
        <time>2017-08-21T08:28:38Z</time>
      </trkpt>
      <trkpt lat="44.24232" lon="0.89473">
        <ele>223.451</ele>
        <time>2017-08-21T08:28:43Z</time>
      </trkpt>
      <trkpt lat="44.24248" lon="0.89507">
        <ele>224.349</ele>
        <time>2017-08-21T08:28:48Z</time>
      </trkpt>
      <trkpt lat="44.24259" lon="0.89562">
        <ele>225.121</ele>
        <time>2017-08-21T08:28:55Z</time>
      </trkpt>
      <trkpt lat="44.24266" lon="0.89608">
        <ele>226.051</ele>
        <time>2017-08-21T08:29:01Z</time>
      </trkpt>
      <trkpt lat="44.24275" lon="0.89638">
        <ele>227.181</ele>
        <time>2017-08-21T08:29:05Z</time>
      </trkpt>
      <trkpt lat="44.24285" lon="0.8969">
        <ele>228.483</ele>
        <time>2017-08-21T08:29:12Z</time>
      </trkpt>
      <trkpt lat="44.24283" lon="0.89729">
        <ele>229.652</ele>
        <time>2017-08-21T08:29:17Z</time>
      </trkpt>
      <trkpt lat="44.24275" lon="0.89782">
        <ele>231.321</ele>
        <time>2017-08-21T08:29:24Z</time>
      </trkpt>
      <trkpt lat="44.24272" lon="0.8984">
        <ele>229.579</ele>
        <time>2017-08-21T08:29:30Z</time>
      </trkpt>
      <trkpt lat="44.2428" lon="0.899">
        <ele>227.548</ele>
        <time>2017-08-21T08:29:36Z</time>
      </trkpt>
      <trkpt lat="44.243" lon="0.89996">
        <ele>225.169</ele>
        <time>2017-08-21T08:29:45Z</time>
      </trkpt>
      <trkpt lat="44.24322" lon="0.90069">
        <ele>223.549</ele>
        <time>2017-08-21T08:29:52Z</time>
      </trkpt>
      <trkpt lat="44.24348" lon="0.90153">
        <ele>222.441</ele>
        <time>2017-08-21T08:30:00Z</time>
      </trkpt>
      <trkpt lat="44.24368" lon="0.90234">
        <ele>223.123</ele>
        <time>2017-08-21T08:30:08Z</time>
      </trkpt>
      <trkpt lat="44.24373" lon="0.9026">
        <ele>223.682</ele>
        <time>2017-08-21T08:30:11Z</time>
      </trkpt>
      <trkpt lat="44.24383" lon="0.90356">
        <ele>225.513</ele>
        <time>2017-08-21T08:30:22Z</time>
      </trkpt>
      <trkpt lat="44.2439" lon="0.90444">
        <ele>225</ele>
        <time>2017-08-21T08:30:32Z</time>
      </trkpt>
      <trkpt lat="44.24402" lon="0.90501">
        <ele>222.909</ele>
        <time>2017-08-21T08:30:38Z</time>
      </trkpt>
      <trkpt lat="44.24426" lon="0.90601">
        <ele>219.909</ele>
        <time>2017-08-21T08:30:47Z</time>
      </trkpt>
      <trkpt lat="44.24436" lon="0.90659">
        <ele>218.629</ele>
        <time>2017-08-21T08:30:52Z</time>
      </trkpt>
      <trkpt lat="44.24454" lon="0.90701">
        <ele>217.208</ele>
        <time>2017-08-21T08:30:56Z</time>
      </trkpt>
      <trkpt lat="44.24507" lon="0.90773">
        <ele>214.511</ele>
        <time>2017-08-21T08:31:04Z</time>
      </trkpt>
      <trkpt lat="44.24557" lon="0.90823">
        <ele>213.823</ele>
        <time>2017-08-21T08:31:11Z</time>
      </trkpt>
      <trkpt lat="44.24609" lon="0.90873">
        <ele>214.584</ele>
        <time>2017-08-21T08:31:19Z</time>
      </trkpt>
      <trkpt lat="44.24658" lon="0.90913">
        <ele>216.364</ele>
        <time>2017-08-21T08:31:27Z</time>
      </trkpt>
      <trkpt lat="44.24703" lon="0.90946">
        <ele>219.017</ele>
        <time>2017-08-21T08:31:35Z</time>
      </trkpt>
      <trkpt lat="44.24738" lon="0.90956">
        <ele>220.194</ele>
        <time>2017-08-21T08:31:41Z</time>
      </trkpt>
      <trkpt lat="44.2479" lon="0.90953">
        <ele>220.093</ele>
        <time>2017-08-21T08:31:49Z</time>
      </trkpt>
      <trkpt lat="44.24826" lon="0.90935">
        <ele>219.995</ele>
        <time>2017-08-21T08:31:55Z</time>
      </trkpt>
      <trkpt lat="44.24878" lon="0.90911">
        <ele>219.566</ele>
        <time>2017-08-21T08:32:04Z</time>
      </trkpt>
      <trkpt lat="44.2493" lon="0.9089">
        <ele>221.957</ele>
        <time>2017-08-21T08:32:14Z</time>
      </trkpt>
      <trkpt lat="44.24959" lon="0.90881">
        <ele>222.887</ele>
        <time>2017-08-21T08:32:20Z</time>
      </trkpt>
      <trkpt lat="44.24997" lon="0.90882">
        <ele>223.999</ele>
        <time>2017-08-21T08:32:28Z</time>
      </trkpt>
      <trkpt lat="44.25042" lon="0.90896">
        <ele>224.558</ele>
        <time>2017-08-21T08:32:38Z</time>
      </trkpt>
      <trkpt lat="44.25096" lon="0.90905">
        <ele>224.957</ele>
        <time>2017-08-21T08:32:49Z</time>
      </trkpt>
      <trkpt lat="44.25156" lon="0.90905">
        <ele>225.576</ele>
        <time>2017-08-21T08:33:00Z</time>
      </trkpt>
      <trkpt lat="44.25202" lon="0.90913">
        <ele>225.886</ele>
        <time>2017-08-21T08:33:07Z</time>
      </trkpt>
      <trkpt lat="44.25238" lon="0.90932">
        <ele>225.576</ele>
        <time>2017-08-21T08:33:12Z</time>
      </trkpt>
      <trkpt lat="44.2528" lon="0.90967">
        <ele>224.745</ele>
        <time>2017-08-21T08:33:18Z</time>
      </trkpt>
      <trkpt lat="44.25327" lon="0.91019">
        <ele>223.455</ele>
        <time>2017-08-21T08:33:25Z</time>
      </trkpt>
      <trkpt lat="44.25379" lon="0.91076">
        <ele>222.537</ele>
        <time>2017-08-21T08:33:33Z</time>
      </trkpt>
      <trkpt lat="44.25428" lon="0.91125">
        <ele>223.39</ele>
        <time>2017-08-21T08:33:41Z</time>
      </trkpt>
      <trkpt lat="44.25484" lon="0.91179">
        <ele>221.621</ele>
        <time>2017-08-21T08:33:50Z</time>
      </trkpt>
      <trkpt lat="44.25509" lon="0.91214">
        <ele>219.669</ele>
        <time>2017-08-21T08:33:54Z</time>
      </trkpt>
      <trkpt lat="44.25534" lon="0.91267">
        <ele>217.956</ele>
        <time>2017-08-21T08:33:59Z</time>
      </trkpt>
      <trkpt lat="44.25563" lon="0.91343">
        <ele>216.949</ele>
        <time>2017-08-21T08:34:06Z</time>
      </trkpt>
      <trkpt lat="44.25588" lon="0.91406">
        <ele>218.397</ele>
        <time>2017-08-21T08:34:13Z</time>
      </trkpt>
      <trkpt lat="44.25595" lon="0.91427">
        <ele>219.374</ele>
        <time>2017-08-21T08:34:16Z</time>
      </trkpt>
      <trkpt lat="44.25593" lon="0.91462">
        <ele>221.186</ele>
        <time>2017-08-21T08:34:21Z</time>
      </trkpt>
      <trkpt lat="44.25578" lon="0.91481">
        <ele>222.054</ele>
        <time>2017-08-21T08:34:25Z</time>
      </trkpt>
      <trkpt lat="44.25569" lon="0.91487">
        <ele>222.393</ele>
        <time>2017-08-21T08:34:27Z</time>
      </trkpt>
      <trkpt lat="44.25522" lon="0.91514">
        <ele>222.619</ele>
        <time>2017-08-21T08:34:37Z</time>
      </trkpt>
      <trkpt lat="44.25512" lon="0.91523">
        <ele>222.508</ele>
        <time>2017-08-21T08:34:39Z</time>
      </trkpt>
      <trkpt lat="44.25495" lon="0.91554">
        <ele>222.45</ele>
        <time>2017-08-21T08:34:44Z</time>
      </trkpt>
      <trkpt lat="44.25493" lon="0.91561">
        <ele>222.449</ele>
        <time>2017-08-21T08:34:45Z</time>
      </trkpt>
      <trkpt lat="44.2548" lon="0.91628">
        <ele>223.551</ele>
        <time>2017-08-21T08:34:54Z</time>
      </trkpt>
      <trkpt lat="44.25474" lon="0.91657">
        <ele>224.353</ele>
        <time>2017-08-21T08:34:58Z</time>
      </trkpt>
      <trkpt lat="44.25473" lon="0.91686">
        <ele>225.244</ele>
        <time>2017-08-21T08:35:02Z</time>
      </trkpt>
      <trkpt lat="44.25482" lon="0.91712">
        <ele>226.277</ele>
        <time>2017-08-21T08:35:06Z</time>
      </trkpt>
      <trkpt lat="44.25486" lon="0.91717">
        <ele>226.475</ele>
        <time>2017-08-21T08:35:07Z</time>
      </trkpt>
      <trkpt lat="44.25535" lon="0.91761">
        <ele>225.929</ele>
        <time>2017-08-21T08:35:17Z</time>
      </trkpt>
      <trkpt lat="44.25585" lon="0.91812">
        <ele>224.829</ele>
        <time>2017-08-21T08:35:26Z</time>
      </trkpt>
      <trkpt lat="44.25618" lon="0.91847">
        <ele>224.409</ele>
        <time>2017-08-21T08:35:32Z</time>
      </trkpt>
      <trkpt lat="44.2563" lon="0.91881">
        <ele>224.069</ele>
        <time>2017-08-21T08:35:36Z</time>
      </trkpt>
      <trkpt lat="44.25629" lon="0.91899">
        <ele>223.989</ele>
        <time>2017-08-21T08:35:38Z</time>
      </trkpt>
      <trkpt lat="44.2563" lon="0.91944">
        <ele>223.96</ele>
        <time>2017-08-21T08:35:43Z</time>
      </trkpt>
      <trkpt lat="44.25645" lon="0.91961">
        <ele>224.111</ele>
        <time>2017-08-21T08:35:46Z</time>
      </trkpt>
      <trkpt lat="44.25651" lon="0.91964">
        <ele>224.171</ele>
        <time>2017-08-21T08:35:47Z</time>
      </trkpt>
      <trkpt lat="44.257" lon="0.91981">
        <ele>224.941</ele>
        <time>2017-08-21T08:35:55Z</time>
      </trkpt>
      <trkpt lat="44.25718" lon="0.91985">
        <ele>225.375</ele>
        <time>2017-08-21T08:35:58Z</time>
      </trkpt>
      <trkpt lat="44.25751" lon="0.92008">
        <ele>225.262</ele>
        <time>2017-08-21T08:36:04Z</time>
      </trkpt>
      <trkpt lat="44.25769" lon="0.92034">
        <ele>224.891</ele>
        <time>2017-08-21T08:36:08Z</time>
      </trkpt>
      <trkpt lat="44.25784" lon="0.92073">
        <ele>224.782</ele>
        <time>2017-08-21T08:36:13Z</time>
      </trkpt>
      <trkpt lat="44.25803" lon="0.92177">
        <ele>225.475</ele>
        <time>2017-08-21T08:36:26Z</time>
      </trkpt>
      <trkpt lat="44.25814" lon="0.92238">
        <ele>226.585</ele>
        <time>2017-08-21T08:36:34Z</time>
      </trkpt>
      <trkpt lat="44.25827" lon="0.92263">
        <ele>227.235</ele>
        <time>2017-08-21T08:36:38Z</time>
      </trkpt>
      <trkpt lat="44.25882" lon="0.92313">
        <ele>228.041</ele>
        <time>2017-08-21T08:36:49Z</time>
      </trkpt>
      <trkpt lat="44.25913" lon="0.9235">
        <ele>226.978</ele>
        <time>2017-08-21T08:36:55Z</time>
      </trkpt>
      <trkpt lat="44.25931" lon="0.92394">
        <ele>226.012</ele>
        <time>2017-08-21T08:37:00Z</time>
      </trkpt>
      <trkpt lat="44.25958" lon="0.92487">
        <ele>224.973</ele>
        <time>2017-08-21T08:37:10Z</time>
      </trkpt>
      <trkpt lat="44.25986" lon="0.92575">
        <ele>224.903</ele>
        <time>2017-08-21T08:37:20Z</time>
      </trkpt>
      <trkpt lat="44.26006" lon="0.92625">
        <ele>224.303</ele>
        <time>2017-08-21T08:37:26Z</time>
      </trkpt>
      <trkpt lat="44.26012" lon="0.92679">
        <ele>225.108</ele>
        <time>2017-08-21T08:37:32Z</time>
      </trkpt>
      <trkpt lat="44.26011" lon="0.92696">
        <ele>225.205</ele>
        <time>2017-08-21T08:37:34Z</time>
      </trkpt>
      <trkpt lat="44.26007" lon="0.92721">
        <ele>225.334</ele>
        <time>2017-08-21T08:37:37Z</time>
      </trkpt>
      <trkpt lat="44.26011" lon="0.92756">
        <ele>226.257</ele>
        <time>2017-08-21T08:37:42Z</time>
      </trkpt>
      <trkpt lat="44.2602" lon="0.92758">
        <ele>226.238</ele>
        <time>2017-08-21T08:37:44Z</time>
      </trkpt>
      <trkpt lat="44.2607" lon="0.9275">
        <ele>225.555</ele>
        <time>2017-08-21T08:37:53Z</time>
      </trkpt>
      <trkpt lat="44.26123" lon="0.92741">
        <ele>225.357</ele>
        <time>2017-08-21T08:38:02Z</time>
      </trkpt>
      <trkpt lat="44.26176" lon="0.92739">
        <ele>225.447</ele>
        <time>2017-08-21T08:38:11Z</time>
      </trkpt>
      <trkpt lat="44.26233" lon="0.92744">
        <ele>224.823</ele>
        <time>2017-08-21T08:38:20Z</time>
      </trkpt>
      <trkpt lat="44.26288" lon="0.92757">
        <ele>224.757</ele>
        <time>2017-08-21T08:38:28Z</time>
      </trkpt>
      <trkpt lat="44.26347" lon="0.92773">
        <ele>225.699</ele>
        <time>2017-08-21T08:38:37Z</time>
      </trkpt>
      <trkpt lat="44.26405" lon="0.92788">
        <ele>226.057</ele>
        <time>2017-08-21T08:38:46Z</time>
      </trkpt>
      <trkpt lat="44.26472" lon="0.92805">
        <ele>225.352</ele>
        <time>2017-08-21T08:38:56Z</time>
      </trkpt>
      <trkpt lat="44.26514" lon="0.92814">
        <ele>225.138</ele>
        <time>2017-08-21T08:39:02Z</time>
      </trkpt>
      <trkpt lat="44.26548" lon="0.92804">
        <ele>225.32</ele>
        <time>2017-08-21T08:39:07Z</time>
      </trkpt>
      <trkpt lat="44.266" lon="0.92765">
        <ele>226.473</ele>
        <time>2017-08-21T08:39:16Z</time>
      </trkpt>
      <trkpt lat="44.26605" lon="0.92761">
        <ele>226.502</ele>
        <time>2017-08-21T08:39:17Z</time>
      </trkpt>
      <trkpt lat="44.26617" lon="0.92765">
        <ele>226.946</ele>
        <time>2017-08-21T08:39:20Z</time>
      </trkpt>
      <trkpt lat="44.26616" lon="0.92778">
        <ele>226.94</ele>
        <time>2017-08-21T08:39:22Z</time>
      </trkpt>
      <trkpt lat="44.26603" lon="0.92826">
        <ele>226.807</ele>
        <time>2017-08-21T08:39:28Z</time>
      </trkpt>
      <trkpt lat="44.26585" lon="0.92898">
        <ele>226.436</ele>
        <time>2017-08-21T08:39:37Z</time>
      </trkpt>
      <trkpt lat="44.26562" lon="0.92995">
        <ele>224.972</ele>
        <time>2017-08-21T08:39:49Z</time>
      </trkpt>
      <trkpt lat="44.26539" lon="0.93087">
        <ele>225.827</ele>
        <time>2017-08-21T08:40:00Z</time>
      </trkpt>
      <trkpt lat="44.26516" lon="0.93185">
        <ele>226.387</ele>
        <time>2017-08-21T08:40:12Z</time>
      </trkpt>
      <trkpt lat="44.26499" lon="0.9327">
        <ele>226.387</ele>
        <time>2017-08-21T08:40:22Z</time>
      </trkpt>
      <trkpt lat="44.26487" lon="0.93342">
        <ele>227.029</ele>
        <time>2017-08-21T08:40:30Z</time>
      </trkpt>
      <trkpt lat="44.26472" lon="0.9343">
        <ele>227.851</ele>
        <time>2017-08-21T08:40:40Z</time>
      </trkpt>
      <trkpt lat="44.2646" lon="0.935">
        <ele>228.829</ele>
        <time>2017-08-21T08:40:48Z</time>
      </trkpt>
      <trkpt lat="44.26443" lon="0.936">
        <ele>230.108</ele>
        <time>2017-08-21T08:41:00Z</time>
      </trkpt>
      <trkpt lat="44.26426" lon="0.93681">
        <ele>230.517</ele>
        <time>2017-08-21T08:41:10Z</time>
      </trkpt>
      <trkpt lat="44.26402" lon="0.93743">
        <ele>231.091</ele>
        <time>2017-08-21T08:41:18Z</time>
      </trkpt>
      <trkpt lat="44.26368" lon="0.93803">
        <ele>231.068</ele>
        <time>2017-08-21T08:41:27Z</time>
      </trkpt>
      <trkpt lat="44.26325" lon="0.93866">
        <ele>230.466</ele>
        <time>2017-08-21T08:41:37Z</time>
      </trkpt>
      <trkpt lat="44.26292" lon="0.93896">
        <ele>230.225</ele>
        <time>2017-08-21T08:41:43Z</time>
      </trkpt>
      <trkpt lat="44.26253" lon="0.93917">
        <ele>230.236</ele>
        <time>2017-08-21T08:41:49Z</time>
      </trkpt>
      <trkpt lat="44.26165" lon="0.93957">
        <ele>230.4</ele>
        <time>2017-08-21T08:42:02Z</time>
      </trkpt>
      <trkpt lat="44.26081" lon="0.93996">
        <ele>231.141</ele>
        <time>2017-08-21T08:42:15Z</time>
      </trkpt>
      <trkpt lat="44.26027" lon="0.94024">
        <ele>231.638</ele>
        <time>2017-08-21T08:42:24Z</time>
      </trkpt>
      <trkpt lat="44.26" lon="0.94053">
        <ele>232.161</ele>
        <time>2017-08-21T08:42:29Z</time>
      </trkpt>
      <trkpt lat="44.25976" lon="0.94099">
        <ele>232.772</ele>
        <time>2017-08-21T08:42:35Z</time>
      </trkpt>
      <trkpt lat="44.25947" lon="0.94173">
        <ele>232.888</ele>
        <time>2017-08-21T08:42:44Z</time>
      </trkpt>
      <trkpt lat="44.25917" lon="0.94249">
        <ele>233.573</ele>
        <time>2017-08-21T08:42:53Z</time>
      </trkpt>
      <trkpt lat="44.25894" lon="0.94329">
        <ele>233.763</ele>
        <time>2017-08-21T08:43:02Z</time>
      </trkpt>
      <trkpt lat="44.25881" lon="0.944">
        <ele>233.002</ele>
        <time>2017-08-21T08:43:09Z</time>
      </trkpt>
      <trkpt lat="44.25867" lon="0.94484">
        <ele>231.7</ele>
        <time>2017-08-21T08:43:17Z</time>
      </trkpt>
      <trkpt lat="44.25851" lon="0.94582">
        <ele>230.381</ele>
        <time>2017-08-21T08:43:26Z</time>
      </trkpt>
      <trkpt lat="44.25834" lon="0.94679">
        <ele>229.118</ele>
        <time>2017-08-21T08:43:35Z</time>
      </trkpt>
      <trkpt lat="44.25821" lon="0.9476">
        <ele>228.291</ele>
        <time>2017-08-21T08:43:43Z</time>
      </trkpt>
      <trkpt lat="44.25814" lon="0.94802">
        <ele>227.853</ele>
        <time>2017-08-21T08:43:48Z</time>
      </trkpt>
      <trkpt lat="44.25821" lon="0.94829">
        <ele>227.247</ele>
        <time>2017-08-21T08:43:52Z</time>
      </trkpt>
      <trkpt lat="44.25851" lon="0.94883">
        <ele>225.949</ele>
        <time>2017-08-21T08:43:59Z</time>
      </trkpt>
      <trkpt lat="44.25876" lon="0.94951">
        <ele>225.577</ele>
        <time>2017-08-21T08:44:06Z</time>
      </trkpt>
      <trkpt lat="44.25916" lon="0.95062">
        <ele>225.71</ele>
        <time>2017-08-21T08:44:17Z</time>
      </trkpt>
      <trkpt lat="44.2594" lon="0.95134">
        <ele>225.486</ele>
        <time>2017-08-21T08:44:24Z</time>
      </trkpt>
      <trkpt lat="44.2598" lon="0.95249">
        <ele>224.877</ele>
        <time>2017-08-21T08:44:36Z</time>
      </trkpt>
      <trkpt lat="44.26011" lon="0.95334">
        <ele>223.574</ele>
        <time>2017-08-21T08:44:45Z</time>
      </trkpt>
      <trkpt lat="44.26044" lon="0.95401">
        <ele>220.404</ele>
        <time>2017-08-21T08:44:52Z</time>
      </trkpt>
      <trkpt lat="44.26088" lon="0.95467">
        <ele>216.316</ele>
        <time>2017-08-21T08:44:59Z</time>
      </trkpt>
      <trkpt lat="44.26143" lon="0.95539">
        <ele>213.935</ele>
        <time>2017-08-21T08:45:07Z</time>
      </trkpt>
      <trkpt lat="44.26186" lon="0.95577">
        <ele>215.175</ele>
        <time>2017-08-21T08:45:13Z</time>
      </trkpt>
      <trkpt lat="44.26221" lon="0.95605">
        <ele>217.464</ele>
        <time>2017-08-21T08:45:19Z</time>
      </trkpt>
      <trkpt lat="44.26241" lon="0.9563">
        <ele>218.754</ele>
        <time>2017-08-21T08:45:24Z</time>
      </trkpt>
      <trkpt lat="44.26255" lon="0.95648">
        <ele>219.6</ele>
        <time>2017-08-21T08:45:28Z</time>
      </trkpt>
      <trkpt lat="44.26264" lon="0.95662">
        <ele>219.915</ele>
        <time>2017-08-21T08:45:31Z</time>
      </trkpt>
      <trkpt lat="44.26279" lon="0.95697">
        <ele>221.291</ele>
        <time>2017-08-21T08:45:38Z</time>
      </trkpt>
      <trkpt lat="44.26289" lon="0.95728">
        <ele>222.685</ele>
        <time>2017-08-21T08:45:44Z</time>
      </trkpt>
      <trkpt lat="44.2629" lon="0.95751">
        <ele>223.813</ele>
        <time>2017-08-21T08:45:48Z</time>
      </trkpt>
      <trkpt lat="44.26282" lon="0.95795">
        <ele>225.056</ele>
        <time>2017-08-21T08:45:56Z</time>
      </trkpt>
      <trkpt lat="44.26263" lon="0.95807">
        <ele>230.693</ele>
        <time>2017-08-21T08:46:02Z</time>
      </trkpt>
      <trkpt lat="44.26232" lon="0.95823">
        <ele>240.476</ele>
        <time>2017-08-21T08:46:11Z</time>
      </trkpt>
      <trkpt lat="44.26199" lon="0.95841">
        <ele>240.207</ele>
        <time>2017-08-21T08:46:19Z</time>
      </trkpt>
      <trkpt lat="44.26187" lon="0.95847">
        <ele>240.337</ele>
        <time>2017-08-21T08:46:22Z</time>
      </trkpt>
      <trkpt lat="44.26168" lon="0.95868">
        <ele>235.685</ele>
        <time>2017-08-21T08:46:27Z</time>
      </trkpt>
      <trkpt lat="44.26138" lon="0.95904">
        <ele>235.245</ele>
        <time>2017-08-21T08:46:35Z</time>
      </trkpt>
      <trkpt lat="44.26098" lon="0.95953">
        <ele>234.916</ele>
        <time>2017-08-21T08:46:46Z</time>
      </trkpt>
      <trkpt lat="44.26071" lon="0.95986">
        <ele>235.318</ele>
        <time>2017-08-21T08:46:53Z</time>
      </trkpt>
      <trkpt lat="44.26056" lon="0.95986">
        <ele>235.058</ele>
        <time>2017-08-21T08:46:57Z</time>
      </trkpt>
      <trkpt lat="44.26052" lon="0.95989">
        <ele>235.161</ele>
        <time>2017-08-21T08:46:59Z</time>
      </trkpt>
      <trkpt lat="44.26055" lon="0.95995">
        <ele>234.197</ele>
        <time>2017-08-21T08:47:01Z</time>
      </trkpt>
      <trkpt lat="44.26054" lon="0.95996">
        <ele>232.631</ele>
        <time>2017-08-21T08:47:07Z</time>
      </trkpt>
      <trkpt lat="44.26054" lon="0.95993">
        <ele>245.195</ele>
        <time>2017-08-21T08:47:30Z</time>
      </trkpt>
      <trkpt lat="44.26052" lon="0.95995">
        <ele>251.414</ele>
        <time>2017-08-21T08:51:43Z</time>
      </trkpt>
      <trkpt lat="44.26067" lon="0.95993">
        <ele>248.598</ele>
        <time>2017-08-21T08:51:49Z</time>
      </trkpt>
      <trkpt lat="44.26078" lon="0.95982">
        <ele>246.309</ele>
        <time>2017-08-21T08:51:53Z</time>
      </trkpt>
      <trkpt lat="44.26083" lon="0.95977">
        <ele>244.839</ele>
        <time>2017-08-21T08:51:56Z</time>
      </trkpt>
      <trkpt lat="44.26098" lon="0.95958">
        <ele>240.81</ele>
        <time>2017-08-21T08:52:05Z</time>
      </trkpt>
      <trkpt lat="44.26117" lon="0.95934">
        <ele>238.129</ele>
        <time>2017-08-21T08:52:12Z</time>
      </trkpt>
      <trkpt lat="44.2614" lon="0.95903">
        <ele>235.139</ele>
        <time>2017-08-21T08:52:19Z</time>
      </trkpt>
      <trkpt lat="44.26143" lon="0.95898">
        <ele>234.88</ele>
        <time>2017-08-21T08:52:20Z</time>
      </trkpt>
      <trkpt lat="44.26174" lon="0.95861">
        <ele>230.989</ele>
        <time>2017-08-21T08:52:29Z</time>
      </trkpt>
      <trkpt lat="44.26181" lon="0.95853">
        <ele>231.048</ele>
        <time>2017-08-21T08:52:31Z</time>
      </trkpt>
      <trkpt lat="44.26199" lon="0.95837">
        <ele>231.96</ele>
        <time>2017-08-21T08:52:37Z</time>
      </trkpt>
      <trkpt lat="44.26201" lon="0.95835">
        <ele>235.131</ele>
        <time>2017-08-21T08:52:43Z</time>
      </trkpt>
      <trkpt lat="44.26201" lon="0.95835">
        <ele>235.263</ele>
        <time>2017-08-21T08:52:48Z</time>
      </trkpt>
      <trkpt lat="44.262" lon="0.9583">
        <ele>235.711</ele>
        <time>2017-08-21T08:52:54Z</time>
      </trkpt>
      <trkpt lat="44.26199" lon="0.95823">
        <ele>234.03</ele>
        <time>2017-08-21T08:57:59Z</time>
      </trkpt>
      <trkpt lat="44.26214" lon="0.95816">
        <ele>233.55</ele>
        <time>2017-08-21T08:58:05Z</time>
      </trkpt>
      <trkpt lat="44.26242" lon="0.95803">
        <ele>233.12</ele>
        <time>2017-08-21T08:58:11Z</time>
      </trkpt>
      <trkpt lat="44.26265" lon="0.95793">
        <ele>232.429</ele>
        <time>2017-08-21T08:58:15Z</time>
      </trkpt>
      <trkpt lat="44.26283" lon="0.95773">
        <ele>226.976</ele>
        <time>2017-08-21T08:58:19Z</time>
      </trkpt>
      <trkpt lat="44.26289" lon="0.95743">
        <ele>224.707</ele>
        <time>2017-08-21T08:58:22Z</time>
      </trkpt>
      <trkpt lat="44.26284" lon="0.95702">
        <ele>222.015</ele>
        <time>2017-08-21T08:58:26Z</time>
      </trkpt>
      <trkpt lat="44.2626" lon="0.95648">
        <ele>217.859</ele>
        <time>2017-08-21T08:58:31Z</time>
      </trkpt>
      <trkpt lat="44.26216" lon="0.95595">
        <ele>212.516</ele>
        <time>2017-08-21T08:58:37Z</time>
      </trkpt>
      <trkpt lat="44.26165" lon="0.95553">
        <ele>208.437</ele>
        <time>2017-08-21T08:58:43Z</time>
      </trkpt>
      <trkpt lat="44.26124" lon="0.95512">
        <ele>208.601</ele>
        <time>2017-08-21T08:58:48Z</time>
      </trkpt>
      <trkpt lat="44.26091" lon="0.95466">
        <ele>209.423</ele>
        <time>2017-08-21T08:58:53Z</time>
      </trkpt>
      <trkpt lat="44.26065" lon="0.95427">
        <ele>210.972</ele>
        <time>2017-08-21T08:58:58Z</time>
      </trkpt>
      <trkpt lat="44.2604" lon="0.95389">
        <ele>213.243</ele>
        <time>2017-08-21T08:59:04Z</time>
      </trkpt>
      <trkpt lat="44.26017" lon="0.95344">
        <ele>214.471</ele>
        <time>2017-08-21T08:59:12Z</time>
      </trkpt>
      <trkpt lat="44.26004" lon="0.95312">
        <ele>216.309</ele>
        <time>2017-08-21T08:59:18Z</time>
      </trkpt>
      <trkpt lat="44.25983" lon="0.95254">
        <ele>217.891</ele>
        <time>2017-08-21T08:59:28Z</time>
      </trkpt>
      <trkpt lat="44.25961" lon="0.95191">
        <ele>218.808</ele>
        <time>2017-08-21T08:59:37Z</time>
      </trkpt>
      <trkpt lat="44.25937" lon="0.95121">
        <ele>220.269</ele>
        <time>2017-08-21T08:59:46Z</time>
      </trkpt>
      <trkpt lat="44.25909" lon="0.95039">
        <ele>221.779</ele>
        <time>2017-08-21T08:59:56Z</time>
      </trkpt>
      <trkpt lat="44.25879" lon="0.94952">
        <ele>222.741</ele>
        <time>2017-08-21T09:00:06Z</time>
      </trkpt>
      <trkpt lat="44.25845" lon="0.94859">
        <ele>224.098</ele>
        <time>2017-08-21T09:00:17Z</time>
      </trkpt>
      <trkpt lat="44.25822" lon="0.94821">
        <ele>225.128</ele>
        <time>2017-08-21T09:00:23Z</time>
      </trkpt>
      <trkpt lat="44.25815" lon="0.94793">
        <ele>225.858</ele>
        <time>2017-08-21T09:00:27Z</time>
      </trkpt>
      <trkpt lat="44.25816" lon="0.94777">
        <ele>225.928</ele>
        <time>2017-08-21T09:00:29Z</time>
      </trkpt>
      <trkpt lat="44.2583" lon="0.94701">
        <ele>225.657</ele>
        <time>2017-08-21T09:00:38Z</time>
      </trkpt>
      <trkpt lat="44.25846" lon="0.94609">
        <ele>225.67</ele>
        <time>2017-08-21T09:00:48Z</time>
      </trkpt>
      <trkpt lat="44.25864" lon="0.94506">
        <ele>226.607</ele>
        <time>2017-08-21T09:00:59Z</time>
      </trkpt>
      <trkpt lat="44.25877" lon="0.94431">
        <ele>227.227</ele>
        <time>2017-08-21T09:01:07Z</time>
      </trkpt>
      <trkpt lat="44.25894" lon="0.94337">
        <ele>227.967</ele>
        <time>2017-08-21T09:01:17Z</time>
      </trkpt>
      <trkpt lat="44.25916" lon="0.94256">
        <ele>227.825</ele>
        <time>2017-08-21T09:01:26Z</time>
      </trkpt>
      <trkpt lat="44.25945" lon="0.9418">
        <ele>228.006</ele>
        <time>2017-08-21T09:01:34Z</time>
      </trkpt>
      <trkpt lat="44.25978" lon="0.94099">
        <ele>227.782</ele>
        <time>2017-08-21T09:01:42Z</time>
      </trkpt>
      <trkpt lat="44.25997" lon="0.94059">
        <ele>227.836</ele>
        <time>2017-08-21T09:01:46Z</time>
      </trkpt>
      <trkpt lat="44.2603" lon="0.94021">
        <ele>227.766</ele>
        <time>2017-08-21T09:01:51Z</time>
      </trkpt>
      <trkpt lat="44.26054" lon="0.94006">
        <ele>227.816</ele>
        <time>2017-08-21T09:01:54Z</time>
      </trkpt>
      <trkpt lat="44.26142" lon="0.93967">
        <ele>227.656</ele>
        <time>2017-08-21T09:02:05Z</time>
      </trkpt>
      <trkpt lat="44.26205" lon="0.93938">
        <ele>227.626</ele>
        <time>2017-08-21T09:02:13Z</time>
      </trkpt>
      <trkpt lat="44.26268" lon="0.9391">
        <ele>228.107</ele>
        <time>2017-08-21T09:02:21Z</time>
      </trkpt>
      <trkpt lat="44.26318" lon="0.93877">
        <ele>228.918</ele>
        <time>2017-08-21T09:02:28Z</time>
      </trkpt>
      <trkpt lat="44.26353" lon="0.93834">
        <ele>229.617</ele>
        <time>2017-08-21T09:02:34Z</time>
      </trkpt>
      <trkpt lat="44.26394" lon="0.93767">
        <ele>229.796</ele>
        <time>2017-08-21T09:02:42Z</time>
      </trkpt>
      <trkpt lat="44.26424" lon="0.93699">
        <ele>229.667</ele>
        <time>2017-08-21T09:02:49Z</time>
      </trkpt>
      <trkpt lat="44.26441" lon="0.93633">
        <ele>229.266</ele>
        <time>2017-08-21T09:02:55Z</time>
      </trkpt>
      <trkpt lat="44.26461" lon="0.93517">
        <ele>227.375</ele>
        <time>2017-08-21T09:03:05Z</time>
      </trkpt>
      <trkpt lat="44.26481" lon="0.93394">
        <ele>225.726</ele>
        <time>2017-08-21T09:03:15Z</time>
      </trkpt>
      <trkpt lat="44.26506" lon="0.93245">
        <ele>224.767</ele>
        <time>2017-08-21T09:03:27Z</time>
      </trkpt>
      <trkpt lat="44.26529" lon="0.9314">
        <ele>224.847</ele>
        <time>2017-08-21T09:03:36Z</time>
      </trkpt>
      <trkpt lat="44.26558" lon="0.9302">
        <ele>224.697</ele>
        <time>2017-08-21T09:03:47Z</time>
      </trkpt>
      <trkpt lat="44.26588" lon="0.92895">
        <ele>224.556</ele>
        <time>2017-08-21T09:03:59Z</time>
      </trkpt>
      <trkpt lat="44.26607" lon="0.92813">
        <ele>224.116</ele>
        <time>2017-08-21T09:04:08Z</time>
      </trkpt>
      <trkpt lat="44.26618" lon="0.92769">
        <ele>223.587</ele>
        <time>2017-08-21T09:04:14Z</time>
      </trkpt>
      <trkpt lat="44.26621" lon="0.92753">
        <ele>223.416</ele>
        <time>2017-08-21T09:04:17Z</time>
      </trkpt>
      <trkpt lat="44.26614" lon="0.92749">
        <ele>222.916</ele>
        <time>2017-08-21T09:04:20Z</time>
      </trkpt>
      <trkpt lat="44.26609" lon="0.92753">
        <ele>222.796</ele>
        <time>2017-08-21T09:04:21Z</time>
      </trkpt>
      <trkpt lat="44.26571" lon="0.92781">
        <ele>221.885</ele>
        <time>2017-08-21T09:04:27Z</time>
      </trkpt>
      <trkpt lat="44.26534" lon="0.92805">
        <ele>221.556</ele>
        <time>2017-08-21T09:04:32Z</time>
      </trkpt>
      <trkpt lat="44.2649" lon="0.92809">
        <ele>221.807</ele>
        <time>2017-08-21T09:04:37Z</time>
      </trkpt>
      <trkpt lat="44.26392" lon="0.92783">
        <ele>222.396</ele>
        <time>2017-08-21T09:04:49Z</time>
      </trkpt>
      <trkpt lat="44.26296" lon="0.92756">
        <ele>220.685</ele>
        <time>2017-08-21T09:05:01Z</time>
      </trkpt>
      <trkpt lat="44.26223" lon="0.92738">
        <ele>219.776</ele>
        <time>2017-08-21T09:05:10Z</time>
      </trkpt>
      <trkpt lat="44.26177" lon="0.92733">
        <ele>219.867</ele>
        <time>2017-08-21T09:05:16Z</time>
      </trkpt>
      <trkpt lat="44.26102" lon="0.92737">
        <ele>220.013</ele>
        <time>2017-08-21T09:05:26Z</time>
      </trkpt>
      <trkpt lat="44.26048" lon="0.92746">
        <ele>219.734</ele>
        <time>2017-08-21T09:05:33Z</time>
      </trkpt>
      <trkpt lat="44.26033" lon="0.92751">
        <ele>219.603</ele>
        <time>2017-08-21T09:05:35Z</time>
      </trkpt>
      <trkpt lat="44.26006" lon="0.92738">
        <ele>218.612</ele>
        <time>2017-08-21T09:05:39Z</time>
      </trkpt>
      <trkpt lat="44.26004" lon="0.92717">
        <ele>218.082</ele>
        <time>2017-08-21T09:05:41Z</time>
      </trkpt>
      <trkpt lat="44.26007" lon="0.92706">
        <ele>217.983</ele>
        <time>2017-08-21T09:05:42Z</time>
      </trkpt>
      <trkpt lat="44.2601" lon="0.92635">
        <ele>216.436</ele>
        <time>2017-08-21T09:05:48Z</time>
      </trkpt>
      <trkpt lat="44.25996" lon="0.92589">
        <ele>216.544</ele>
        <time>2017-08-21T09:05:52Z</time>
      </trkpt>
      <trkpt lat="44.25973" lon="0.92523">
        <ele>216.955</ele>
        <time>2017-08-21T09:05:58Z</time>
      </trkpt>
      <trkpt lat="44.25951" lon="0.92456">
        <ele>217.495</ele>
        <time>2017-08-21T09:06:04Z</time>
      </trkpt>
      <trkpt lat="44.25929" lon="0.9238">
        <ele>218.565</ele>
        <time>2017-08-21T09:06:11Z</time>
      </trkpt>
      <trkpt lat="44.25918" lon="0.92351">
        <ele>219.326</ele>
        <time>2017-08-21T09:06:14Z</time>
      </trkpt>
      <trkpt lat="44.25886" lon="0.92307">
        <ele>220.843</ele>
        <time>2017-08-21T09:06:20Z</time>
      </trkpt>
      <trkpt lat="44.25837" lon="0.92261">
        <ele>221.752</ele>
        <time>2017-08-21T09:06:28Z</time>
      </trkpt>
      <trkpt lat="44.25826" lon="0.92249">
        <ele>221.582</ele>
        <time>2017-08-21T09:06:30Z</time>
      </trkpt>
      <trkpt lat="44.2581" lon="0.92215">
        <ele>221.052</ele>
        <time>2017-08-21T09:06:34Z</time>
      </trkpt>
      <trkpt lat="44.25789" lon="0.92104">
        <ele>220.132</ele>
        <time>2017-08-21T09:06:44Z</time>
      </trkpt>
      <trkpt lat="44.2578" lon="0.92059">
        <ele>220.005</ele>
        <time>2017-08-21T09:06:48Z</time>
      </trkpt>
      <trkpt lat="44.25759" lon="0.92011">
        <ele>220.153</ele>
        <time>2017-08-21T09:06:53Z</time>
      </trkpt>
      <trkpt lat="44.25753" lon="0.92003">
        <ele>220.183</ele>
        <time>2017-08-21T09:06:54Z</time>
      </trkpt>
      <trkpt lat="44.2574" lon="0.91989">
        <ele>220.203</ele>
        <time>2017-08-21T09:06:56Z</time>
      </trkpt>
      <trkpt lat="44.25711" lon="0.91971">
        <ele>219.711</ele>
        <time>2017-08-21T09:07:00Z</time>
      </trkpt>
      <trkpt lat="44.25703" lon="0.9197">
        <ele>219.481</ele>
        <time>2017-08-21T09:07:01Z</time>
      </trkpt>
      <trkpt lat="44.25654" lon="0.91956">
        <ele>218.101</ele>
        <time>2017-08-21T09:07:07Z</time>
      </trkpt>
      <trkpt lat="44.25646" lon="0.91952">
        <ele>217.941</ele>
        <time>2017-08-21T09:07:08Z</time>
      </trkpt>
      <trkpt lat="44.25629" lon="0.91937">
        <ele>217.502</ele>
        <time>2017-08-21T09:07:12Z</time>
      </trkpt>
      <trkpt lat="44.25623" lon="0.91916">
        <ele>217.492</ele>
        <time>2017-08-21T09:07:15Z</time>
      </trkpt>
      <trkpt lat="44.25627" lon="0.91888">
        <ele>217.773</ele>
        <time>2017-08-21T09:07:18Z</time>
      </trkpt>
      <trkpt lat="44.25626" lon="0.91857">
        <ele>218.021</ele>
        <time>2017-08-21T09:07:21Z</time>
      </trkpt>
      <trkpt lat="44.25612" lon="0.91832">
        <ele>218.231</ele>
        <time>2017-08-21T09:07:24Z</time>
      </trkpt>
      <trkpt lat="44.2555" lon="0.91768">
        <ele>219.011</ele>
        <time>2017-08-21T09:07:34Z</time>
      </trkpt>
      <trkpt lat="44.25487" lon="0.91708">
        <ele>219.669</ele>
        <time>2017-08-21T09:07:44Z</time>
      </trkpt>
      <trkpt lat="44.25471" lon="0.91672">
        <ele>218.138</ele>
        <time>2017-08-21T09:07:48Z</time>
      </trkpt>
      <trkpt lat="44.25475" lon="0.91635">
        <ele>217.058</ele>
        <time>2017-08-21T09:07:51Z</time>
      </trkpt>
      <trkpt lat="44.25493" lon="0.91547">
        <ele>214.469</ele>
        <time>2017-08-21T09:07:58Z</time>
      </trkpt>
      <trkpt lat="44.25517" lon="0.9151">
        <ele>214.28</ele>
        <time>2017-08-21T09:08:02Z</time>
      </trkpt>
      <trkpt lat="44.25532" lon="0.91499">
        <ele>214.551</ele>
        <time>2017-08-21T09:08:04Z</time>
      </trkpt>
      <trkpt lat="44.25572" lon="0.91478">
        <ele>214.389</ele>
        <time>2017-08-21T09:08:09Z</time>
      </trkpt>
      <trkpt lat="44.25593" lon="0.9144">
        <ele>212.807</ele>
        <time>2017-08-21T09:08:13Z</time>
      </trkpt>
      <trkpt lat="44.25591" lon="0.91413">
        <ele>211.586</ele>
        <time>2017-08-21T09:08:15Z</time>
      </trkpt>
      <trkpt lat="44.25582" lon="0.91385">
        <ele>210.427</ele>
        <time>2017-08-21T09:08:17Z</time>
      </trkpt>
      <trkpt lat="44.25536" lon="0.91269">
        <ele>209.721</ele>
        <time>2017-08-21T09:08:26Z</time>
      </trkpt>
      <trkpt lat="44.25514" lon="0.91219">
        <ele>210.861</ele>
        <time>2017-08-21T09:08:31Z</time>
      </trkpt>
      <trkpt lat="44.25491" lon="0.9118">
        <ele>212.761</ele>
        <time>2017-08-21T09:08:36Z</time>
      </trkpt>
      <trkpt lat="44.25459" lon="0.91148">
        <ele>214.901</ele>
        <time>2017-08-21T09:08:42Z</time>
      </trkpt>
      <trkpt lat="44.25422" lon="0.91114">
        <ele>216.079</ele>
        <time>2017-08-21T09:08:49Z</time>
      </trkpt>
      <trkpt lat="44.25381" lon="0.91074">
        <ele>215.218</ele>
        <time>2017-08-21T09:08:56Z</time>
      </trkpt>
      <trkpt lat="44.25324" lon="0.91011">
        <ele>215.284</ele>
        <time>2017-08-21T09:09:06Z</time>
      </trkpt>
      <trkpt lat="44.25278" lon="0.90961">
        <ele>215.94</ele>
        <time>2017-08-21T09:09:15Z</time>
      </trkpt>
      <trkpt lat="44.25226" lon="0.90919">
        <ele>217.228</ele>
        <time>2017-08-21T09:09:25Z</time>
      </trkpt>
      <trkpt lat="44.25187" lon="0.90903">
        <ele>218.218</ele>
        <time>2017-08-21T09:09:32Z</time>
      </trkpt>
      <trkpt lat="44.25147" lon="0.90898">
        <ele>219.237</ele>
        <time>2017-08-21T09:09:39Z</time>
      </trkpt>
      <trkpt lat="44.25095" lon="0.90899">
        <ele>219.556</ele>
        <time>2017-08-21T09:09:47Z</time>
      </trkpt>
      <trkpt lat="44.2504" lon="0.90891">
        <ele>218.956</ele>
        <time>2017-08-21T09:09:55Z</time>
      </trkpt>
      <trkpt lat="44.24982" lon="0.90876">
        <ele>216.495</ele>
        <time>2017-08-21T09:10:03Z</time>
      </trkpt>
      <trkpt lat="44.24938" lon="0.90878">
        <ele>214.975</ele>
        <time>2017-08-21T09:10:08Z</time>
      </trkpt>
      <trkpt lat="44.24884" lon="0.90897">
        <ele>213.295</ele>
        <time>2017-08-21T09:10:14Z</time>
      </trkpt>
      <trkpt lat="44.24818" lon="0.90929">
        <ele>211.946</ele>
        <time>2017-08-21T09:10:21Z</time>
      </trkpt>
      <trkpt lat="44.24783" lon="0.90946">
        <ele>211.435</ele>
        <time>2017-08-21T09:10:25Z</time>
      </trkpt>
      <trkpt lat="44.24739" lon="0.90949">
        <ele>211.458</ele>
        <time>2017-08-21T09:10:30Z</time>
      </trkpt>
      <trkpt lat="44.24704" lon="0.90942">
        <ele>210.933</ele>
        <time>2017-08-21T09:10:34Z</time>
      </trkpt>
      <trkpt lat="44.24654" lon="0.90907">
        <ele>208.482</ele>
        <time>2017-08-21T09:10:40Z</time>
      </trkpt>
      <trkpt lat="44.24588" lon="0.9085">
        <ele>206.473</ele>
        <time>2017-08-21T09:10:48Z</time>
      </trkpt>
      <trkpt lat="44.24511" lon="0.90774">
        <ele>206.335</ele>
        <time>2017-08-21T09:10:58Z</time>
      </trkpt>
      <trkpt lat="44.2448" lon="0.90737">
        <ele>207.156</ele>
        <time>2017-08-21T09:11:03Z</time>
      </trkpt>
      <trkpt lat="44.24451" lon="0.90693">
        <ele>208.757</ele>
        <time>2017-08-21T09:11:09Z</time>
      </trkpt>
      <trkpt lat="44.24439" lon="0.90671">
        <ele>209.477</ele>
        <time>2017-08-21T09:11:12Z</time>
      </trkpt>
      <trkpt lat="44.2443" lon="0.90639">
        <ele>210.477</ele>
        <time>2017-08-21T09:11:16Z</time>
      </trkpt>
      <trkpt lat="44.24421" lon="0.90579">
        <ele>211.986</ele>
        <time>2017-08-21T09:11:23Z</time>
      </trkpt>
      <trkpt lat="44.24399" lon="0.9049">
        <ele>214.984</ele>
        <time>2017-08-21T09:11:35Z</time>
      </trkpt>
      <trkpt lat="44.24386" lon="0.90424">
        <ele>217.034</ele>
        <time>2017-08-21T09:11:44Z</time>
      </trkpt>
      <trkpt lat="44.24382" lon="0.90362">
        <ele>217.443</ele>
        <time>2017-08-21T09:11:52Z</time>
      </trkpt>
      <trkpt lat="44.24376" lon="0.90278">
        <ele>216.841</ele>
        <time>2017-08-21T09:12:01Z</time>
      </trkpt>
      <trkpt lat="44.24365" lon="0.90224">
        <ele>215.361</ele>
        <time>2017-08-21T09:12:06Z</time>
      </trkpt>
      <trkpt lat="44.24337" lon="0.90109">
        <ele>214.693</ele>
        <time>2017-08-21T09:12:16Z</time>
      </trkpt>
      <trkpt lat="44.2431" lon="0.90029">
        <ele>215.993</ele>
        <time>2017-08-21T09:12:24Z</time>
      </trkpt>
      <trkpt lat="44.24292" lon="0.89962">
        <ele>217.392</ele>
        <time>2017-08-21T09:12:31Z</time>
      </trkpt>
      <trkpt lat="44.24277" lon="0.8989">
        <ele>219.113</ele>
        <time>2017-08-21T09:12:39Z</time>
      </trkpt>
      <trkpt lat="44.24269" lon="0.89821">
        <ele>220.923</ele>
        <time>2017-08-21T09:12:47Z</time>
      </trkpt>
      <trkpt lat="44.24273" lon="0.89769">
        <ele>221.522</ele>
        <time>2017-08-21T09:12:53Z</time>
      </trkpt>
      <trkpt lat="44.24284" lon="0.89708">
        <ele>221.581</ele>
        <time>2017-08-21T09:13:00Z</time>
      </trkpt>
      <trkpt lat="44.2428" lon="0.89656">
        <ele>219.909</ele>
        <time>2017-08-21T09:13:05Z</time>
      </trkpt>
      <trkpt lat="44.24256" lon="0.89554">
        <ele>216.739</ele>
        <time>2017-08-21T09:13:14Z</time>
      </trkpt>
      <trkpt lat="44.24243" lon="0.89493">
        <ele>215.92</ele>
        <time>2017-08-21T09:13:19Z</time>
      </trkpt>
      <trkpt lat="44.24222" lon="0.89454">
        <ele>214.798</ele>
        <time>2017-08-21T09:13:23Z</time>
      </trkpt>
      <trkpt lat="44.24189" lon="0.89429">
        <ele>213.537</ele>
        <time>2017-08-21T09:13:27Z</time>
      </trkpt>
      <trkpt lat="44.24179" lon="0.89425">
        <ele>213.278</ele>
        <time>2017-08-21T09:13:28Z</time>
      </trkpt>
      <trkpt lat="44.2416" lon="0.89419">
        <ele>212.868</ele>
        <time>2017-08-21T09:13:30Z</time>
      </trkpt>
      <trkpt lat="44.24103" lon="0.89414">
        <ele>212.119</ele>
        <time>2017-08-21T09:13:36Z</time>
      </trkpt>
      <trkpt lat="44.24059" lon="0.89394">
        <ele>212.51</ele>
        <time>2017-08-21T09:13:41Z</time>
      </trkpt>
      <trkpt lat="44.24022" lon="0.89364">
        <ele>213.56</ele>
        <time>2017-08-21T09:13:46Z</time>
      </trkpt>
      <trkpt lat="44.24" lon="0.89333">
        <ele>214.23</ele>
        <time>2017-08-21T09:13:50Z</time>
      </trkpt>
      <trkpt lat="44.23976" lon="0.89293">
        <ele>214.86</ele>
        <time>2017-08-21T09:13:55Z</time>
      </trkpt>
      <trkpt lat="44.23934" lon="0.89251">
        <ele>211.846</ele>
        <time>2017-08-21T09:14:01Z</time>
      </trkpt>
      <trkpt lat="44.23891" lon="0.89207">
        <ele>207.155</ele>
        <time>2017-08-21T09:14:06Z</time>
      </trkpt>
      <trkpt lat="44.23825" lon="0.89133">
        <ele>202.547</ele>
        <time>2017-08-21T09:14:13Z</time>
      </trkpt>
      <trkpt lat="44.23773" lon="0.89071">
        <ele>200.988</ele>
        <time>2017-08-21T09:14:19Z</time>
      </trkpt>
      <trkpt lat="44.23719" lon="0.89003">
        <ele>201.699</ele>
        <time>2017-08-21T09:14:26Z</time>
      </trkpt>
      <trkpt lat="44.23684" lon="0.88951">
        <ele>202.465</ele>
        <time>2017-08-21T09:14:32Z</time>
      </trkpt>
      <trkpt lat="44.23652" lon="0.88903">
        <ele>199.683</ele>
        <time>2017-08-21T09:14:37Z</time>
      </trkpt>
      <trkpt lat="44.236" lon="0.88832">
        <ele>198.967</ele>
        <time>2017-08-21T09:14:44Z</time>
      </trkpt>
      <trkpt lat="44.2357" lon="0.88789">
        <ele>201.709</ele>
        <time>2017-08-21T09:14:49Z</time>
      </trkpt>
      <trkpt lat="44.23547" lon="0.88754">
        <ele>204.759</ele>
        <time>2017-08-21T09:14:54Z</time>
      </trkpt>
      <trkpt lat="44.23528" lon="0.8872">
        <ele>207.138</ele>
        <time>2017-08-21T09:15:00Z</time>
      </trkpt>
      <trkpt lat="44.23504" lon="0.88674">
        <ele>209.878</ele>
        <time>2017-08-21T09:15:09Z</time>
      </trkpt>
      <trkpt lat="44.23476" lon="0.88625">
        <ele>211.466</ele>
        <time>2017-08-21T09:15:19Z</time>
      </trkpt>
      <trkpt lat="44.23451" lon="0.8858">
        <ele>210.764</ele>
        <time>2017-08-21T09:15:27Z</time>
      </trkpt>
      <trkpt lat="44.23432" lon="0.88525">
        <ele>210.164</ele>
        <time>2017-08-21T09:15:35Z</time>
      </trkpt>
      <trkpt lat="44.23412" lon="0.88472">
        <ele>210.005</ele>
        <time>2017-08-21T09:15:42Z</time>
      </trkpt>
      <trkpt lat="44.23385" lon="0.8842">
        <ele>210.275</ele>
        <time>2017-08-21T09:15:49Z</time>
      </trkpt>
      <trkpt lat="44.2335" lon="0.88345">
        <ele>209.684</ele>
        <time>2017-08-21T09:15:58Z</time>
      </trkpt>
      <trkpt lat="44.23311" lon="0.88265">
        <ele>208.124</ele>
        <time>2017-08-21T09:16:07Z</time>
      </trkpt>
      <trkpt lat="44.233" lon="0.8825">
        <ele>207.954</ele>
        <time>2017-08-21T09:16:09Z</time>
      </trkpt>
      <trkpt lat="44.23265" lon="0.88227">
        <ele>207.604</ele>
        <time>2017-08-21T09:16:14Z</time>
      </trkpt>
      <trkpt lat="44.23243" lon="0.88226">
        <ele>207.804</ele>
        <time>2017-08-21T09:16:17Z</time>
      </trkpt>
      <trkpt lat="44.23161" lon="0.88244">
        <ele>207.182</ele>
        <time>2017-08-21T09:16:28Z</time>
      </trkpt>
      <trkpt lat="44.23099" lon="0.88251">
        <ele>206.492</ele>
        <time>2017-08-21T09:16:36Z</time>
      </trkpt>
      <trkpt lat="44.23025" lon="0.88252">
        <ele>206.953</ele>
        <time>2017-08-21T09:16:46Z</time>
      </trkpt>
      <trkpt lat="44.22967" lon="0.88256">
        <ele>208.794</ele>
        <time>2017-08-21T09:16:55Z</time>
      </trkpt>
      <trkpt lat="44.22929" lon="0.88269">
        <ele>210.073</ele>
        <time>2017-08-21T09:17:02Z</time>
      </trkpt>
      <trkpt lat="44.22888" lon="0.88289">
        <ele>211.073</ele>
        <time>2017-08-21T09:17:10Z</time>
      </trkpt>
      <trkpt lat="44.2287" lon="0.88279">
        <ele>210.742</ele>
        <time>2017-08-21T09:17:14Z</time>
      </trkpt>
      <trkpt lat="44.2287" lon="0.88262">
        <ele>210.912</ele>
        <time>2017-08-21T09:17:16Z</time>
      </trkpt>
      <trkpt lat="44.22878" lon="0.88188">
        <ele>210.001</ele>
        <time>2017-08-21T09:17:24Z</time>
      </trkpt>
      <trkpt lat="44.22885" lon="0.88107">
        <ele>208.54</ele>
        <time>2017-08-21T09:17:31Z</time>
      </trkpt>
      <trkpt lat="44.22891" lon="0.87992">
        <ele>207.361</ele>
        <time>2017-08-21T09:17:40Z</time>
      </trkpt>
      <trkpt lat="44.22894" lon="0.87904">
        <ele>208.011</ele>
        <time>2017-08-21T09:17:47Z</time>
      </trkpt>
      <trkpt lat="44.22896" lon="0.87806">
        <ele>207.99</ele>
        <time>2017-08-21T09:17:55Z</time>
      </trkpt>
      <trkpt lat="44.22889" lon="0.87731">
        <ele>206.64</ele>
        <time>2017-08-21T09:18:01Z</time>
      </trkpt>
      <trkpt lat="44.22888" lon="0.87665">
        <ele>205.34</ele>
        <time>2017-08-21T09:18:06Z</time>
      </trkpt>
      <trkpt lat="44.22887" lon="0.87574">
        <ele>203.21</ele>
        <time>2017-08-21T09:18:13Z</time>
      </trkpt>
      <trkpt lat="44.22872" lon="0.87484">
        <ele>201.16</ele>
        <time>2017-08-21T09:18:20Z</time>
      </trkpt>
      <trkpt lat="44.22855" lon="0.87383">
        <ele>200.009</ele>
        <time>2017-08-21T09:18:28Z</time>
      </trkpt>
      <trkpt lat="44.22831" lon="0.87233">
        <ele>199.621</ele>
        <time>2017-08-21T09:18:40Z</time>
      </trkpt>
      <trkpt lat="44.22811" lon="0.87098">
        <ele>198.778</ele>
        <time>2017-08-21T09:18:51Z</time>
      </trkpt>
      <trkpt lat="44.22808" lon="0.87018">
        <ele>196.637</ele>
        <time>2017-08-21T09:18:57Z</time>
      </trkpt>
      <trkpt lat="44.22801" lon="0.86935">
        <ele>194.978</ele>
        <time>2017-08-21T09:19:03Z</time>
      </trkpt>
      <trkpt lat="44.2278" lon="0.86842">
        <ele>193.418</ele>
        <time>2017-08-21T09:19:10Z</time>
      </trkpt>
      <trkpt lat="44.22756" lon="0.8678">
        <ele>192.368</ele>
        <time>2017-08-21T09:19:15Z</time>
      </trkpt>
      <trkpt lat="44.22751" lon="0.86769">
        <ele>192.258</ele>
        <time>2017-08-21T09:19:16Z</time>
      </trkpt>
      <trkpt lat="44.22714" lon="0.86725">
        <ele>190.858</ele>
        <time>2017-08-21T09:19:21Z</time>
      </trkpt>
      <trkpt lat="44.22705" lon="0.86719">
        <ele>190.517</ele>
        <time>2017-08-21T09:19:22Z</time>
      </trkpt>
      <trkpt lat="44.22636" lon="0.86674">
        <ele>186.853</ele>
        <time>2017-08-21T09:19:29Z</time>
      </trkpt>
      <trkpt lat="44.22587" lon="0.86647">
        <ele>185.676</ele>
        <time>2017-08-21T09:19:34Z</time>
      </trkpt>
      <trkpt lat="44.22536" lon="0.86615">
        <ele>185.567</ele>
        <time>2017-08-21T09:19:40Z</time>
      </trkpt>
      <trkpt lat="44.22492" lon="0.86567">
        <ele>184.976</ele>
        <time>2017-08-21T09:19:46Z</time>
      </trkpt>
      <trkpt lat="44.22454" lon="0.86509">
        <ele>182.965</ele>
        <time>2017-08-21T09:19:52Z</time>
      </trkpt>
      <trkpt lat="44.22442" lon="0.86488">
        <ele>182.365</ele>
        <time>2017-08-21T09:19:54Z</time>
      </trkpt>
      <trkpt lat="44.22433" lon="0.86442">
        <ele>180.955</ele>
        <time>2017-08-21T09:19:58Z</time>
      </trkpt>
      <trkpt lat="44.22435" lon="0.8643">
        <ele>180.515</ele>
        <time>2017-08-21T09:19:59Z</time>
      </trkpt>
      <trkpt lat="44.22451" lon="0.86382">
        <ele>178.915</ele>
        <time>2017-08-21T09:20:03Z</time>
      </trkpt>
      <trkpt lat="44.22456" lon="0.8633">
        <ele>178.036</ele>
        <time>2017-08-21T09:20:07Z</time>
      </trkpt>
      <trkpt lat="44.22454" lon="0.86319">
        <ele>178.047</ele>
        <time>2017-08-21T09:20:08Z</time>
      </trkpt>
      <trkpt lat="44.22441" lon="0.86214">
        <ele>177.226</ele>
        <time>2017-08-21T09:20:17Z</time>
      </trkpt>
      <trkpt lat="44.22428" lon="0.86125">
        <ele>177.148</ele>
        <time>2017-08-21T09:20:24Z</time>
      </trkpt>
      <trkpt lat="44.22415" lon="0.8607">
        <ele>179.147</ele>
        <time>2017-08-21T09:20:29Z</time>
      </trkpt>
      <trkpt lat="44.22402" lon="0.86017">
        <ele>181.947</ele>
        <time>2017-08-21T09:20:35Z</time>
      </trkpt>
      <trkpt lat="44.22386" lon="0.85963">
        <ele>184.706</ele>
        <time>2017-08-21T09:20:42Z</time>
      </trkpt>
      <trkpt lat="44.22368" lon="0.85904">
        <ele>185.055</ele>
        <time>2017-08-21T09:20:49Z</time>
      </trkpt>
      <trkpt lat="44.22352" lon="0.85834">
        <ele>184.795</ele>
        <time>2017-08-21T09:20:56Z</time>
      </trkpt>
      <trkpt lat="44.22325" lon="0.8572">
        <ele>183.724</ele>
        <time>2017-08-21T09:21:07Z</time>
      </trkpt>
      <trkpt lat="44.22311" lon="0.8564">
        <ele>182.394</ele>
        <time>2017-08-21T09:21:14Z</time>
      </trkpt>
      <trkpt lat="44.22298" lon="0.8554">
        <ele>180.194</ele>
        <time>2017-08-21T09:21:22Z</time>
      </trkpt>
      <trkpt lat="44.22278" lon="0.85439">
        <ele>181.605</ele>
        <time>2017-08-21T09:21:30Z</time>
      </trkpt>
      <trkpt lat="44.22259" lon="0.85361">
        <ele>182.511</ele>
        <time>2017-08-21T09:21:37Z</time>
      </trkpt>
      <trkpt lat="44.22236" lon="0.85303">
        <ele>179.51</ele>
        <time>2017-08-21T09:21:42Z</time>
      </trkpt>
      <trkpt lat="44.22198" lon="0.85228">
        <ele>175.499</ele>
        <time>2017-08-21T09:21:48Z</time>
      </trkpt>
      <trkpt lat="44.22147" lon="0.85142">
        <ele>172.792</ele>
        <time>2017-08-21T09:21:55Z</time>
      </trkpt>
      <trkpt lat="44.22104" lon="0.85096">
        <ele>172.132</ele>
        <time>2017-08-21T09:22:00Z</time>
      </trkpt>
      <trkpt lat="44.22051" lon="0.85052">
        <ele>171.773</ele>
        <time>2017-08-21T09:22:06Z</time>
      </trkpt>
      <trkpt lat="44.22015" lon="0.85007">
        <ele>171.633</ele>
        <time>2017-08-21T09:22:11Z</time>
      </trkpt>
      <trkpt lat="44.21961" lon="0.8493">
        <ele>169.361</ele>
        <time>2017-08-21T09:22:19Z</time>
      </trkpt>
      <trkpt lat="44.2191" lon="0.8486">
        <ele>167.172</ele>
        <time>2017-08-21T09:22:26Z</time>
      </trkpt>
      <trkpt lat="44.21886" lon="0.84806">
        <ele>168.162</ele>
        <time>2017-08-21T09:22:31Z</time>
      </trkpt>
      <trkpt lat="44.21868" lon="0.8476">
        <ele>168.87</ele>
        <time>2017-08-21T09:22:36Z</time>
      </trkpt>
      <trkpt lat="44.21851" lon="0.84728">
        <ele>168.239</ele>
        <time>2017-08-21T09:22:40Z</time>
      </trkpt>
      <trkpt lat="44.21843" lon="0.84712">
        <ele>167.989</ele>
        <time>2017-08-21T09:22:42Z</time>
      </trkpt>
      <trkpt lat="44.21847" lon="0.84689">
        <ele>167.189</ele>
        <time>2017-08-21T09:22:45Z</time>
      </trkpt>
      <trkpt lat="44.21853" lon="0.84684">
        <ele>166.839</ele>
        <time>2017-08-21T09:22:46Z</time>
      </trkpt>
      <trkpt lat="44.219" lon="0.84628">
        <ele>163.828</ele>
        <time>2017-08-21T09:22:54Z</time>
      </trkpt>
      <trkpt lat="44.21949" lon="0.84573">
        <ele>160.858</ele>
        <time>2017-08-21T09:23:02Z</time>
      </trkpt>
      <trkpt lat="44.21971" lon="0.84555">
        <ele>160.049</ele>
        <time>2017-08-21T09:23:05Z</time>
      </trkpt>
      <trkpt lat="44.21989" lon="0.84552">
        <ele>159.489</ele>
        <time>2017-08-21T09:23:09Z</time>
      </trkpt>
      <trkpt lat="44.21995" lon="0.84555">
        <ele>158.849</ele>
        <time>2017-08-21T09:23:13Z</time>
      </trkpt>
      <trkpt lat="44.21997" lon="0.84555">
        <ele>158.559</ele>
        <time>2017-08-21T09:23:16Z</time>
      </trkpt>
      <trkpt lat="44.21998" lon="0.84554">
        <ele>158.33</ele>
        <time>2017-08-21T09:23:20Z</time>
      </trkpt>
      <trkpt lat="44.22004" lon="0.84549">
        <ele>157.679</ele>
        <time>2017-08-21T09:23:24Z</time>
      </trkpt>
      <trkpt lat="44.22002" lon="0.84545">
        <ele>157.289</ele>
        <time>2017-08-21T09:23:27Z</time>
      </trkpt>
      <trkpt lat="44.22001" lon="0.84547">
        <ele>157.87</ele>
        <time>2017-08-21T09:23:38Z</time>
      </trkpt>
    </trkseg>
  </trk>
</gpx>